createdAt,value
2023-05-02T00:00:00.903Z,101454.25
2023-05-02T00:02:29.341Z,101459.88
2023-05-02T00:04:57.577Z,101451.75
2023-05-02T00:07:26.610Z,101452.91
2023-05-02T00:09:54.943Z,101455.97
2023-05-02T00:12:24.261Z,101459.75
2023-05-02T00:14:52.178Z,101469.28
2023-05-02T00:17:20.489Z,101475.97
2023-05-02T00:19:48.941Z,101472.47
2023-05-02T00:22:17.017Z,101480.16
2023-05-02T00:24:44.955Z,101482.34
2023-05-02T00:27:12.912Z,101472.59
2023-05-02T00:29:42.100Z,101485.50
2023-05-02T00:32:09.902Z,101485.06
2023-05-02T00:34:37.853Z,101488.09
2023-05-02T00:37:05.664Z,101488.38
2023-05-02T00:39:35.067Z,101487.66
2023-05-02T00:42:03.426Z,101485.19
2023-05-02T00:44:31.625Z,101489.97
2023-05-02T00:47:02.801Z,101492.72
2023-05-02T00:49:31.516Z,101500.38
2023-05-02T00:51:59.856Z,101504.13
2023-05-02T00:54:27.922Z,101508.19
2023-05-02T00:56:55.758Z,101501.94
2023-05-02T00:59:23.771Z,101501.06
2023-05-02T01:02:02.234Z,101496.44
2023-05-02T01:04:42.437Z,101497.59
2023-05-02T01:07:24.004Z,101497.72
2023-05-02T01:10:02.792Z,101498.91
2023-05-02T01:12:39.336Z,101497.16
2023-05-02T01:15:10.633Z,101501.91
2023-05-02T01:17:39.994Z,101510.31
2023-05-02T01:20:14.797Z,101505.66
2023-05-02T01:22:43.276Z,101513.34
2023-05-02T01:25:23.674Z,101520.44
2023-05-02T01:28:01.589Z,101524.19
2023-05-02T01:30:34.045Z,101528.97
2023-05-02T01:33:04.235Z,101530.25
2023-05-02T01:35:34.952Z,101533.88
2023-05-02T01:38:04.187Z,101535.88
2023-05-02T01:40:32.776Z,101537.06
2023-05-02T01:43:04.321Z,101536.19
2023-05-02T01:45:37.727Z,101545.31
2023-05-02T01:48:08.868Z,101545.44
2023-05-02T01:50:38.588Z,101543.69
2023-05-02T01:53:09.554Z,101549.19
2023-05-02T01:55:39.572Z,101553.91
2023-05-02T01:58:08.517Z,101550.28
2023-05-02T02:00:39.041Z,101560.28
2023-05-02T02:03:07.521Z,101566.91
2023-05-02T02:05:36.570Z,101575.91
2023-05-02T02:08:04.901Z,101571.59
2023-05-02T02:10:41.199Z,101569.53
2023-05-02T02:13:16.947Z,101570.53
2023-05-02T02:15:49.140Z,101565.03
2023-05-02T02:18:22.256Z,101561.41
2023-05-02T02:20:52.120Z,101572.72
2023-05-02T02:23:27.098Z,101575.34
2023-05-02T02:25:56.940Z,101572.59
2023-05-02T02:28:25.066Z,101573.59
2023-05-02T02:30:54.393Z,101576.34
2023-05-02T02:33:26.247Z,101575.59
2023-05-02T02:36:05.486Z,101573.47
2023-05-02T02:38:43.059Z,101574.47
2023-05-02T02:41:18.069Z,101582.72
2023-05-02T02:43:59.548Z,101587.22
2023-05-02T02:46:35.728Z,101579.97
2023-05-02T02:49:16.388Z,101585.34
2023-05-02T02:51:48.148Z,101584.47
2023-05-02T02:54:30.344Z,101598.03
2023-05-02T02:57:03.532Z,101599.22
2023-05-02T02:59:35.351Z,101598.03
2023-05-02T03:02:09.281Z,101599.91
2023-05-02T03:04:40.272Z,101597.03
2023-05-02T03:07:08.715Z,101600.78
2023-05-02T03:09:43.280Z,101609.69
2023-05-02T03:12:15.459Z,101609.22
2023-05-02T03:14:44.888Z,101606.47
2023-05-02T03:17:14.359Z,101610.94
2023-05-02T03:19:43.242Z,101611.97
2023-05-02T03:22:11.451Z,101621.09
2023-05-02T03:24:39.294Z,101627.59
2023-05-02T03:27:07.167Z,101621.22
2023-05-02T03:29:41.065Z,101634.09
2023-05-02T03:32:10.493Z,101632.22
2023-05-02T03:34:41.828Z,101621.09
2023-05-02T03:37:10.273Z,101623.09
2023-05-02T03:39:38.141Z,101625.84
2023-05-02T03:42:06.734Z,101629.47
2023-05-02T03:44:34.544Z,101634.09
2023-05-02T03:47:03.410Z,101629.59
2023-05-02T03:49:36.938Z,101631.47
2023-05-02T03:52:06.930Z,101631.22
2023-05-02T03:54:36.721Z,101627.72
2023-05-02T03:57:05.969Z,101626.84
2023-05-02T03:59:35.281Z,101635.84
2023-05-02T04:02:11.515Z,101643.47
2023-05-02T04:04:43.960Z,101638.97
2023-05-02T04:07:19.239Z,101646.97
2023-05-02T04:09:51.255Z,101645.34
2023-05-02T04:12:19.201Z,101646.22
2023-05-02T04:14:49.813Z,101652.72
2023-05-02T04:17:18.216Z,101639.84
2023-05-02T04:19:49.188Z,101647.22
2023-05-02T04:22:19.383Z,101654.47
2023-05-02T04:24:52.619Z,101653.72
2023-05-02T04:27:20.889Z,101652.72
2023-05-02T04:29:49.854Z,101662.84
2023-05-02T04:32:19.220Z,101658.34
2023-05-02T04:34:48.394Z,101656.47
2023-05-02T04:37:18.100Z,101666.59
2023-05-02T04:39:48.720Z,101674.59
2023-05-02T04:42:20.406Z,101678.47
2023-05-02T04:44:59.495Z,101674.84
2023-05-02T04:47:27.488Z,101683.09
2023-05-02T04:49:55.660Z,101694.09
2023-05-02T04:52:23.977Z,101696.84
2023-05-02T04:54:53.570Z,101702.22
2023-05-02T04:57:23.287Z,101706.09
2023-05-02T04:59:55.781Z,101708.00
2023-05-02T05:02:25.848Z,101722.59
2023-05-02T05:04:54.907Z,101721.75
2023-05-02T05:07:22.999Z,101723.63
2023-05-02T05:09:54.777Z,101719.72
2023-05-02T05:12:25.425Z,101727.50
2023-05-02T05:14:53.585Z,101735.63
2023-05-02T05:17:24.187Z,101731.13
2023-05-02T05:20:03.638Z,101725.34
2023-05-02T05:22:32.890Z,101732.13
2023-05-02T05:25:02.404Z,101741.25
2023-05-02T05:27:32.770Z,101733.13
2023-05-02T05:30:01.107Z,101737.75
2023-05-02T05:32:29.543Z,101744.25
2023-05-02T05:34:58.018Z,101751.50
2023-05-02T05:37:28.127Z,101747.00
2023-05-02T05:39:57.994Z,101756.25
2023-05-02T05:42:27.282Z,101749.88
2023-05-02T05:44:59.608Z,101762.03
2023-05-02T05:47:28.303Z,101763.03
2023-05-02T05:49:57.035Z,101774.91
2023-05-02T05:52:30.392Z,101773.28
2023-05-02T05:55:01.018Z,101780.66
2023-05-02T05:57:31.401Z,101780.53
2023-05-02T05:59:59.465Z,101778.03
2023-05-02T06:02:27.709Z,101787.31
2023-05-02T06:04:56.985Z,101779.19
2023-05-02T06:07:26.478Z,101792.19
2023-05-02T06:09:54.525Z,101792.28
2023-05-02T06:12:22.936Z,101797.91
2023-05-02T06:14:52.626Z,101799.78
2023-05-02T06:17:20.806Z,101803.69
2023-05-02T06:19:50.453Z,101805.56
2023-05-02T06:22:18.347Z,101813.81
2023-05-02T06:24:46.170Z,101817.56
2023-05-02T06:27:13.985Z,101829.44
2023-05-02T06:29:41.788Z,101830.44
2023-05-02T06:32:10.992Z,101834.06
2023-05-02T06:34:38.774Z,101832.69
2023-05-02T06:37:06.945Z,101842.81
2023-05-02T06:39:34.745Z,101847.56
2023-05-02T06:42:02.917Z,101850.44
2023-05-02T06:44:31.497Z,101858.66
2023-05-02T06:46:59.359Z,101864.28
2023-05-02T06:49:28.697Z,101856.78
2023-05-02T06:51:56.502Z,101864.56
2023-05-02T06:54:24.322Z,101868.19
2023-05-02T06:56:52.381Z,101877.44
2023-05-02T06:59:20.201Z,101870.06
2023-05-02T07:01:48.036Z,101877.28
2023-05-02T07:04:15.873Z,101873.69
2023-05-02T07:06:45.157Z,101886.16
2023-05-02T07:09:12.976Z,101890.91
2023-05-02T07:11:40.844Z,101889.78
2023-05-02T07:14:08.605Z,101888.91
2023-05-02T07:16:36.501Z,101897.91
2023-05-02T07:19:06.612Z,101900.66
2023-05-02T07:21:34.484Z,101906.91
2023-05-02T07:24:03.741Z,101905.75
2023-05-02T07:26:31.573Z,101909.50
2023-05-02T07:28:59.350Z,101909.38
2023-05-02T07:31:27.213Z,101913.88
2023-05-02T07:33:55.098Z,101913.88
2023-05-02T07:36:22.889Z,101915.50
2023-05-02T07:38:51.096Z,101913.75
2023-05-02T07:41:20.587Z,101925.38
2023-05-02T07:43:48.377Z,101921.88
2023-05-02T07:46:16.357Z,101925.38
2023-05-02T07:48:44.338Z,101929.88
2023-05-02T07:51:12.532Z,101935.13
2023-05-02T07:53:40.466Z,101942.38
2023-05-02T07:56:09.088Z,101947.59
2023-05-02T07:58:38.372Z,101945.72
2023-05-02T08:01:06.350Z,101947.59
2023-05-02T08:03:34.307Z,101957.75
2023-05-02T08:06:04.092Z,101962.50
2023-05-02T08:08:32.015Z,101965.38
2023-05-02T08:10:59.902Z,101960.88
2023-05-02T08:13:28.361Z,101967.47
2023-05-02T08:15:58.411Z,101963.72
2023-05-02T08:18:26.659Z,101973.25
2023-05-02T08:20:55.644Z,101974.34
2023-05-02T08:23:23.445Z,101987.22
2023-05-02T08:25:51.215Z,101993.84
2023-05-02T08:28:19.752Z,101985.84
2023-05-02T08:30:47.841Z,101994.22
2023-05-02T08:33:17.096Z,101997.84
2023-05-02T08:35:44.921Z,101999.94
2023-05-02T08:38:12.711Z,102000.94
2023-05-02T08:40:42.825Z,102012.09
2023-05-02T08:43:12.863Z,102009.34
2023-05-02T08:45:42.609Z,102019.44
2023-05-02T08:48:12.157Z,102020.56
2023-05-02T08:50:44.498Z,102017.81
2023-05-02T08:53:14.715Z,102025.41
2023-05-02T08:55:44.044Z,102029.03
2023-05-02T08:58:13.977Z,102021.94
2023-05-02T09:00:44.160Z,102020.06
2023-05-02T09:03:24.982Z,102027.16
2023-05-02T09:06:00.849Z,102028.16
2023-05-02T09:08:28.928Z,102031.06
2023-05-02T09:10:56.784Z,102032.81
2023-05-02T09:13:32.054Z,102041.56
2023-05-02T09:16:02.251Z,102041.56
2023-05-02T09:18:31.980Z,102042.16
2023-05-02T09:21:02.523Z,102038.31
2023-05-02T09:23:34.895Z,102044.34
2023-05-02T09:26:03.280Z,102049.94
2023-05-02T09:28:42.042Z,102064.94
2023-05-02T09:31:11.124Z,102057.69
2023-05-02T09:33:40.112Z,102065.81
2023-05-02T09:36:10.913Z,102063.97
2023-05-02T09:38:39.696Z,102067.81
2023-05-02T09:41:07.606Z,102067.69
2023-05-02T09:43:35.418Z,102072.44
2023-05-02T09:46:05.239Z,102076.81
2023-05-02T09:48:34.368Z,102082.94
2023-05-02T09:51:02.563Z,102076.44
2023-05-02T09:53:31.870Z,102087.97
2023-05-02T09:56:04.560Z,102094.72
2023-05-02T09:58:32.558Z,102091.84
2023-05-02T10:01:00.980Z,102095.75
2023-05-02T10:03:30.346Z,102101.63
2023-05-02T10:05:58.222Z,102100.16
2023-05-02T10:08:32.080Z,102101.41
2023-05-02T10:11:14.123Z,102099.03
2023-05-02T10:13:44.212Z,102108.78
2023-05-02T10:16:14.403Z,102109.94
2023-05-02T10:18:48.283Z,102108.53
2023-05-02T10:21:18.748Z,102114.41
2023-05-02T10:23:46.718Z,102110.41
2023-05-02T10:26:18.413Z,102117.16
2023-05-02T10:28:46.808Z,102110.66
2023-05-02T10:31:16.204Z,102123.66
2023-05-02T10:33:44.553Z,102107.63
2023-05-02T10:36:14.161Z,102109.84
2023-05-02T10:38:43.270Z,102098.59
2023-05-02T10:41:14.756Z,102106.34
2023-05-02T10:43:49.158Z,102099.56
2023-05-02T10:46:33.947Z,102099.09
2023-05-02T10:49:03.750Z,102096.97
2023-05-02T10:51:32.463Z,102099.19
2023-05-02T10:54:22.960Z,102097.66
2023-05-02T10:57:05.865Z,102097.00
2023-05-02T10:59:36.165Z,102102.06
2023-05-02T11:02:07.178Z,102103.13
2023-05-02T11:05:01.663Z,102105.94
2023-05-02T11:07:31.158Z,102117.72
2023-05-02T11:10:26.285Z,102118.47
2023-05-02T11:12:55.388Z,102108.19
2023-05-02T11:15:59.152Z,102119.06
2023-05-02T11:18:27.299Z,102112.84
2023-05-02T11:21:28.755Z,102118.94
2023-05-02T11:24:29.941Z,102117.81
2023-05-02T11:27:30.969Z,102118.81
2023-05-02T11:30:00.158Z,102117.94
2023-05-02T11:33:08.516Z,102106.91
2023-05-02T11:35:37.325Z,102112.41
2023-05-02T11:38:06.564Z,102113.03
2023-05-02T11:40:34.534Z,102113.03
2023-05-02T11:43:13.232Z,102111.00
2023-05-02T11:45:42.563Z,102114.50
2023-05-02T11:48:14.494Z,102118.75
2023-05-02T11:50:49.347Z,102123.28
2023-05-02T11:53:19.838Z,102125.00
2023-05-02T11:55:49.110Z,102130.25
2023-05-02T11:58:18.694Z,102133.88
2023-05-02T12:00:48.034Z,102133.88
2023-05-02T12:03:29.583Z,102132.88
2023-05-02T12:05:58.293Z,102132.25
2023-05-02T12:08:28.243Z,102132.25
2023-05-02T12:10:57.593Z,102141.81
2023-05-02T12:13:26.854Z,102146.34
2023-05-02T12:15:56.037Z,102147.47
2023-05-02T12:18:27.163Z,102152.09
2023-05-02T12:20:56.606Z,102153.97
2023-05-02T12:23:26.281Z,102152.97
2023-05-02T12:25:54.401Z,102165.75
2023-05-02T12:28:24.005Z,102162.00
2023-05-02T12:30:52.716Z,102158.09
2023-05-02T12:33:20.808Z,102161.72
2023-05-02T12:35:51.231Z,102167.84
2023-05-02T12:38:22.941Z,102175.00
2023-05-02T12:40:53.354Z,102168.47
2023-05-02T12:43:21.935Z,102166.19
2023-05-02T12:45:51.777Z,102166.94
2023-05-02T12:48:26.565Z,102172.91
2023-05-02T12:50:56.619Z,102177.31
2023-05-02T12:53:41.476Z,102185.31
2023-05-02T12:56:10.481Z,102178.94
2023-05-02T12:58:45.775Z,102184.81
2023-05-02T13:01:15.103Z,102182.94
2023-05-02T13:03:43.955Z,102189.03
2023-05-02T13:06:13.354Z,102187.78
2023-05-02T13:08:41.510Z,102189.66
2023-05-02T13:11:09.402Z,102196.75
2023-05-02T13:13:37.281Z,102196.50
2023-05-02T13:16:05.560Z,102193.63
2023-05-02T13:18:33.569Z,102196.25
2023-05-02T13:21:01.573Z,102199.88
2023-05-02T13:23:30.847Z,102186.69
2023-05-02T13:25:59.063Z,102186.69
2023-05-02T13:28:26.961Z,102186.56
2023-05-02T13:30:54.857Z,102185.41
2023-05-02T13:33:22.645Z,102189.94
2023-05-02T13:35:50.516Z,102187.00
2023-05-02T13:38:18.383Z,102189.50
2023-05-02T13:40:47.633Z,102188.94
2023-05-02T13:43:15.689Z,102195.34
2023-05-02T13:45:43.773Z,102192.34
2023-05-02T13:48:11.674Z,102195.84
2023-05-02T13:50:39.653Z,102196.56
2023-05-02T13:53:07.529Z,102201.06
2023-05-02T13:55:35.567Z,102196.28
2023-05-02T13:58:05.311Z,102202.56
2023-05-02T14:00:33.213Z,102199.94
2023-05-02T14:03:01.304Z,102205.44
2023-05-02T14:05:29.299Z,102201.69
2023-05-02T14:07:57.245Z,102201.69
2023-05-02T14:10:25.542Z,102197.03
2023-05-02T14:12:53.868Z,102203.31
2023-05-02T14:15:23.920Z,102204.00
2023-05-02T14:17:52.068Z,102197.78
2023-05-02T14:20:20.286Z,102198.63
2023-05-02T14:22:48.302Z,102201.25
2023-05-02T14:25:19.771Z,102200.88
2023-05-02T14:27:47.591Z,102205.63
2023-05-02T14:30:16.782Z,102204.63
2023-05-02T14:32:46.437Z,102197.22
2023-05-02T14:35:14.327Z,102189.19
2023-05-02T14:37:44.990Z,102191.97
2023-05-02T14:40:14.001Z,102199.25
2023-05-02T14:42:42.132Z,102193.97
2023-05-02T14:45:11.039Z,102192.97
2023-05-02T14:47:38.974Z,102205.03
2023-05-02T14:50:09.262Z,102202.88
2023-05-02T14:52:37.242Z,102195.59
2023-05-02T14:55:06.230Z,102197.22
2023-05-02T14:57:34.162Z,102186.19
2023-05-02T15:00:02.588Z,102194.16
2023-05-02T15:02:30.839Z,102194.03
2023-05-02T15:04:58.659Z,102191.13
2023-05-02T15:07:28.737Z,102192.47
2023-05-02T15:09:56.683Z,102195.09
2023-05-02T15:12:25.808Z,102189.44
2023-05-02T15:14:53.727Z,102189.31
2023-05-02T15:17:22.291Z,102189.19
2023-05-02T15:19:50.145Z,102188.03
2023-05-02T15:22:18.331Z,102179.75
2023-05-02T15:24:47.553Z,102184.25
2023-05-02T15:27:15.816Z,102181.75
2023-05-02T15:29:43.864Z,102182.78
2023-05-02T15:32:11.761Z,102182.91
2023-05-02T15:34:39.734Z,102185.66
2023-05-02T15:37:08.153Z,102182.16
2023-05-02T15:39:36.064Z,102177.78
2023-05-02T15:42:07.843Z,102181.59
2023-05-02T15:44:38.919Z,102189.38
2023-05-02T15:47:08.573Z,102186.75
2023-05-02T15:49:37.940Z,102183.41
2023-05-02T15:52:06.190Z,102180.91
2023-05-02T15:54:34.250Z,102195.03
2023-05-02T15:57:02.652Z,102191.66
2023-05-02T15:59:32.005Z,102193.66
2023-05-02T16:01:59.901Z,102196.97
2023-05-02T16:04:28.618Z,102195.47
2023-05-02T16:06:56.685Z,102184.84
2023-05-02T16:09:24.618Z,102186.13
2023-05-02T16:11:52.469Z,102185.41
2023-05-02T16:14:23.863Z,102190.31
2023-05-02T16:16:53.154Z,102196.25
2023-05-02T16:19:23.745Z,102194.63
2023-05-02T16:21:51.610Z,102196.75
2023-05-02T16:24:19.469Z,102199.81
2023-05-02T16:26:47.325Z,102196.31
2023-05-02T16:29:15.119Z,102201.06
2023-05-02T16:31:44.537Z,102201.19
2023-05-02T16:34:14.153Z,102201.19
2023-05-02T16:36:42.504Z,102201.50
2023-05-02T16:39:12.242Z,102196.09
2023-05-02T16:41:40.702Z,102201.88
2023-05-02T16:44:08.588Z,102204.75
2023-05-02T16:46:36.856Z,102195.84
2023-05-02T16:49:04.743Z,102200.63
2023-05-02T16:51:34.009Z,102202.50
2023-05-02T16:54:02.544Z,102203.78
2023-05-02T16:56:30.504Z,102205.81
2023-05-02T16:58:58.408Z,102201.28
2023-05-02T17:01:26.466Z,102202.28
2023-05-02T17:03:54.430Z,102197.78
2023-05-02T17:06:22.997Z,102194.31
2023-05-02T17:08:52.410Z,102199.81
2023-05-02T17:11:20.960Z,102198.19
2023-05-02T17:13:49.783Z,102207.47
2023-05-02T17:16:18.031Z,102207.59
2023-05-02T17:18:46.118Z,102216.88
2023-05-02T17:21:14.257Z,102210.47
2023-05-02T17:23:42.180Z,102225.13
2023-05-02T17:26:15.547Z,102216.88
2023-05-02T17:28:44.521Z,102228.06
2023-05-02T17:31:13.014Z,102226.16
2023-05-02T17:33:42.230Z,102224.41
2023-05-02T17:36:10.597Z,102230.94
2023-05-02T17:38:38.637Z,102238.34
2023-05-02T17:41:06.819Z,102234.69
2023-05-02T17:43:37.918Z,102236.44
2023-05-02T17:46:09.106Z,102243.97
2023-05-02T17:48:37.242Z,102235.94
2023-05-02T17:51:07.020Z,102230.59
2023-05-02T17:53:36.810Z,102228.06
2023-05-02T17:56:05.394Z,102226.31
2023-05-02T17:58:35.408Z,102232.09
2023-05-02T18:01:09.603Z,102229.31
2023-05-02T18:03:38.341Z,102242.50
2023-05-02T18:06:06.654Z,102232.72
2023-05-02T18:08:34.729Z,102233.00
2023-05-02T18:11:03.263Z,102229.63
2023-05-02T18:13:31.336Z,102231.78
2023-05-02T18:15:59.593Z,102231.25
2023-05-02T18:18:28.947Z,102235.03
2023-05-02T18:20:56.850Z,102238.19
2023-05-02T18:23:27.043Z,102238.53
2023-05-02T18:25:55.677Z,102242.56
2023-05-02T18:28:23.470Z,102239.19
2023-05-02T18:30:51.381Z,102245.97
2023-05-02T18:33:19.236Z,102246.28
2023-05-02T18:35:49.583Z,102247.44
2023-05-02T18:38:18.334Z,102249.66
2023-05-02T18:40:46.519Z,102255.69
2023-05-02T18:43:14.389Z,102250.56
2023-05-02T18:45:44.438Z,102260.06
2023-05-02T18:48:12.489Z,102258.56
2023-05-02T18:50:40.443Z,102257.16
2023-05-02T18:53:09.764Z,102259.31
2023-05-02T18:55:37.613Z,102255.31
2023-05-02T18:58:05.465Z,102260.41
2023-05-02T19:00:36.255Z,102259.03
2023-05-02T19:03:12.723Z,102257.53
2023-05-02T19:05:41.145Z,102271.03
2023-05-02T19:08:10.853Z,102265.88
2023-05-02T19:10:39.109Z,102273.84
2023-05-02T19:13:07.275Z,102274.22
2023-05-02T19:15:35.427Z,102273.66
2023-05-02T19:18:03.671Z,102276.78
2023-05-02T19:20:31.687Z,102289.09
2023-05-02T19:23:15.179Z,102288.47
2023-05-02T19:25:48.272Z,102300.69
2023-05-02T19:28:19.793Z,102304.56
2023-05-02T19:30:48.021Z,102298.69
2023-05-02T19:33:16.005Z,102298.91
2023-05-02T19:35:44.270Z,102300.88
2023-05-02T19:38:12.635Z,102307.63
2023-05-02T19:40:40.909Z,102312.34
2023-05-02T19:43:11.104Z,102313.34
2023-05-02T19:45:39.791Z,102314.69
2023-05-02T19:48:08.794Z,102312.06
2023-05-02T19:50:38.320Z,102324.16
2023-05-02T19:53:08.958Z,102318.03
2023-05-02T19:55:40.195Z,102321.00
2023-05-02T19:58:49.891Z,102319.22
2023-05-02T20:01:36.571Z,102320.78
2023-05-02T20:04:05.355Z,102325.75
2023-05-02T20:06:34.524Z,102328.81
2023-05-02T20:09:05.758Z,102332.72
2023-05-02T20:11:34.165Z,102334.78
2023-05-02T20:14:15.857Z,102336.53
2023-05-02T20:17:49.309Z,102335.25
2023-05-02T20:20:13.502Z,102333.59
2023-05-02T20:22:41.768Z,102334.69
2023-05-02T20:25:11.653Z,102338.31
2023-05-02T20:27:40.182Z,102336.66
2023-05-02T20:30:12.283Z,102344.13
2023-05-02T20:32:40.425Z,102338.19
2023-05-02T20:35:09.304Z,102342.72
2023-05-02T20:37:37.644Z,102341.16
2023-05-02T20:40:09.951Z,102351.25
2023-05-02T20:42:41.456Z,102352.59
2023-05-02T20:45:14.201Z,102356.22
2023-05-02T20:47:42.330Z,102363.88
2023-05-02T20:50:11.295Z,102359.72
2023-05-02T20:52:39.762Z,102357.84
2023-05-02T20:55:09.013Z,102358.84
2023-05-02T20:57:37.278Z,102354.56
2023-05-02T21:00:06.686Z,102363.78
2023-05-02T21:02:36.113Z,102361.16
2023-05-02T21:05:06.125Z,102369.69
2023-05-02T21:07:34.372Z,102362.78
2023-05-02T21:10:02.615Z,102359.50
2023-05-02T21:12:31.216Z,102369.69
2023-05-02T21:14:59.208Z,102377.25
2023-05-02T21:17:28.598Z,102372.00
2023-05-02T21:19:57.929Z,102368.47
2023-05-02T21:22:27.033Z,102380.66
2023-05-02T21:24:55.011Z,102381.84
2023-05-02T21:27:24.964Z,102382.03
2023-05-02T21:29:53.095Z,102379.53
2023-05-02T21:32:21.250Z,102379.63
2023-05-02T21:34:50.062Z,102375.22
2023-05-02T21:37:19.437Z,102377.00
2023-05-02T21:39:47.550Z,102383.69
2023-05-02T21:42:15.677Z,102389.28
2023-05-02T21:44:43.717Z,102391.22
2023-05-02T21:47:11.790Z,102387.72
2023-05-02T21:49:40.054Z,102390.44
2023-05-02T21:52:08.039Z,102387.06
2023-05-02T21:54:38.074Z,102389.91
2023-05-02T21:57:06.993Z,102383.72
2023-05-02T21:59:35.152Z,102397.44
2023-05-02T22:02:03.208Z,102394.06
2023-05-02T22:04:31.479Z,102395.00
2023-05-02T22:06:59.744Z,102395.19
2023-05-02T22:09:27.966Z,102396.31
2023-05-02T22:11:57.900Z,102397.28
2023-05-02T22:14:33.842Z,102407.56
2023-05-02T22:17:09.498Z,102404.16
2023-05-02T22:19:37.733Z,102403.28
2023-05-02T22:22:05.821Z,102416.19
2023-05-02T22:24:34.299Z,102413.56
2023-05-02T22:27:03.952Z,102402.59
2023-05-02T22:29:31.885Z,102411.00
2023-05-02T22:31:59.859Z,102405.66
2023-05-02T22:34:27.718Z,102405.84
2023-05-02T22:36:55.514Z,102417.78
2023-05-02T22:39:23.428Z,102414.25
2023-05-02T22:41:51.284Z,102412.50
2023-05-02T22:44:20.638Z,102412.63
2023-05-02T22:46:49.005Z,102410.06
2023-05-02T22:49:18.314Z,102409.19
2023-05-02T22:51:46.676Z,102414.78
2023-05-02T22:54:15.241Z,102419.50
2023-05-02T22:56:43.412Z,102412.34
2023-05-02T22:59:11.565Z,102413.31
2023-05-02T23:01:41.379Z,102407.94
2023-05-02T23:04:10.003Z,102402.78
2023-05-02T23:06:38.005Z,102405.69
2023-05-02T23:09:07.001Z,102403.06
2023-05-02T23:11:34.986Z,102407.00
2023-05-02T23:14:02.909Z,102403.56
2023-05-02T23:16:30.984Z,102409.13
2023-05-02T23:19:00.543Z,102409.25
2023-05-02T23:21:29.126Z,102408.56
2023-05-02T23:23:57.185Z,102402.50
2023-05-02T23:26:25.225Z,102403.59
2023-05-02T23:28:53.090Z,102400.13
2023-05-02T23:31:21.128Z,102395.63
2023-05-02T23:33:49.218Z,102394.97
2023-05-02T23:36:18.559Z,102391.53
2023-05-02T23:38:46.617Z,102382.75
2023-05-02T23:41:14.441Z,102384.78
2023-05-02T23:43:42.288Z,102391.47
2023-05-02T23:46:10.522Z,102393.59
2023-05-02T23:48:38.398Z,102389.28
2023-05-02T23:51:06.418Z,102385.81
2023-05-02T23:53:35.654Z,102384.06
2023-05-02T23:56:03.837Z,102385.34
2023-05-02T23:58:32.033Z,102381.94
